Time;durP1;ratioP1;P1;durP2;ratioP2;P2;SDS_P1;SDS_P2;PMS_P1;PMS_P2;Temp;Humidity;BMP_temperature;BMP_pressure;BME280_temperature;BME280_humidity;BME280_pressure;Samples;Min_cycle;Max_cycle;Signal;HPM_P1;HPM_P2
2022/11/28 00:01:32;;;;;;;2.83;2.63;;;;;;;1.09;97.89;95014.69;2631637;54;20212;-90
2022/11/28 00:08:59;;;;;;;3.30;3.00;;;;;;;0.95;99.34;94997.66;2631478;54;20156;-88
2022/11/28 00:11:36;;;;;;;3.07;2.87;;;;;;;0.93;99.41;94999.56;2631548;54;20149;-88
2022/11/28 00:14:05;;;;;;;2.27;2.17;;;;;;;0.94;100.00;95014.97;2631571;46;20139;-86
2022/11/28 00:16:38;;;;;;;2.27;2.17;;;;;;;0.06;100.00;94899.06;2631490;47;20149;-86
2022/11/28 00:19:07;;;;;;;3.80;3.40;;;;;;;-0.11;100.00;94885.97;2631846;47;20145;-88
2022/11/28 00:21:53;;;;;;;2.17;2.03;;;;;;;0.94;100.00;95015.69;2631799;47;20221;-86
2022/11/28 00:24:22;;;;;;;1.10;1.10;;;;;;;0.84;100.00;94989.09;2631420;47;20141;-87
2022/11/28 00:29:26;;;;;;;2.00;1.90;;;;;;;1.12;100.00;94999.53;2617990;54;20215;-87
2022/11/28 00:31:58;;;;;;;1.70;1.60;;;;;;;1.49;98.07;95016.88;2631685;47;20140;-87
2022/11/28 00:34:27;;;;;;;2.60;2.50;;;;;;;1.01;97.83;94906.03;2626871;46;20242;-85
2022/11/28 00:36:56;;;;;;;2.20;2.00;;;;;;;1.37;95.36;94974.84;2631038;46;20170;-85
2022/11/28 00:39:25;;;;;;;1.47;1.47;;;;;;;1.29;96.74;94985.44;2631263;54;20133;-87
2022/11/28 00:41:54;;;;;;;2.30;1.63;;;;;;;1.49;96.87;95008.50;2630814;47;20149;-87
2022/11/28 00:44:23;;;;;;;3.67;2.67;;;;;;;1.42;95.34;94973.84;2631501;46;20129;-88
2022/11/28 00:46:53;;;;;;;1.90;1.80;;;;;;;1.63;96.01;95011.56;2631274;54;20153;-88
2022/11/28 00:49:25;;;;;;;2.10;2.00;;;;;;;1.47;94.71;94994.41;2631441;54;20199;-89
2022/11/28 00:56:57;;;;;;;1.70;1.70;;;;;;;1.42;96.08;95010.13;2630645;54;20148;-85
2022/11/28 00:59:26;;;;;;;3.43;2.77;;;;;;;1.25;95.89;95009.53;2630992;39;20650;-85
2022/11/28 01:01:55;;;;;;;2.37;2.27;;;;;;;0.62;97.42;94963.84;2629980;54;20186;-87
2022/11/28 01:04:26;;;;;;;3.63;1.67;;;;;;;1.25;98.32;94987.22;2630490;47;20144;-87
2022/11/28 01:06:57;;;;;;;1.50;1.47;;;;;;;1.16;96.38;94999.84;2630459;47;20157;-88
2022/11/28 01:09:26;;;;;;;1.73;1.63;;;;;;;1.42;96.68;95012.91;2630671;47;20129;-87
2022/11/28 01:11:55;;;;;;;1.97;1.80;;;;;;;1.25;96.31;95007.47;2629342;47;20195;-88
2022/11/28 01:14:26;;;;;;;2.87;1.53;;;;;;;0.71;97.37;94967.97;2628540;54;20161;-87
2022/11/28 01:16:59;;;;;;;1.80;1.70;;;;;;;0.58;98.63;94987.91;2629754;47;20149;-86
2022/11/28 01:19:31;;;;;;;2.30;2.20;;;;;;;-0.88;100.00;94821.72;2629929;54;20181;-88
2022/11/28 01:21:59;;;;;;;1.23;1.23;;;;;;;0.28;100.00;94941.78;2626415;47;20184;-86
2022/11/28 01:24:28;;;;;;;1.73;1.73;;;;;;;1.00;100.00;94991.03;2626681;47;20181;-87
2022/11/28 01:26:57;;;;;;;3.47;1.83;;;;;;;0.48;99.60;94900.75;2625968;47;20205;-86
2022/11/28 01:29:25;;;;;;;1.37;1.37;;;;;;;0.99;99.16;94986.03;2625385;47;20176;-86
2022/11/28 01:31:56;;;;;;;1.90;1.20;;;;;;;0.99;98.91;95002.78;2624550;47;20156;-87
2022/11/28 01:34:25;;;;;;;1.60;1.60;;;;;;;1.11;99.22;94975.03;2624854;39;20544;-87
2022/11/28 01:36:56;;;;;;;1.97;1.87;;;;;;;0.76;99.04;95002.47;2624178;47;20157;-85
2022/11/28 01:39:25;;;;;;;2.97;2.77;;;;;;;0.27;100.00;94937.53;2624720;47;20157;-85
2022/11/28 01:41:54;;;;;;;1.40;1.40;;;;;;;1.15;100.00;94964.91;2624519;47;20677;-86
2022/11/28 01:44:52;;;;;;;1.30;1.23;;;;;;;0.93;98.94;94946.56;2630286;47;20163;-86
2022/11/28 01:47:25;;;;;;;1.50;1.40;;;;;;;1.07;97.91;94989.44;2630818;54;20133;-85
2022/11/28 01:49:55;;;;;;;1.93;1.83;;;;;;;0.95;98.29;94974.59;2630818;47;20140;-84
2022/11/28 01:52:27;;;;;;;2.20;2.10;;;;;;;0.58;99.39;94966.34;2630890;47;20149;-85
2022/11/28 01:54:59;;;;;;;0.90;0.90;;;;;;;0.73;100.00;94975.75;2625405;54;20190;-87
2022/11/28 01:57:29;;;;;;;2.40;2.23;;;;;;;0.43;100.00;94958.22;2623507;46;20178;-86
2022/11/28 02:00:03;;;;;;;1.93;1.87;;;;;;;0.43;100.00;94938.72;2624369;47;20155;-85
2022/11/28 02:02:37;;;;;;;1.60;1.50;;;;;;;0.47;100.00;94978.06;2624547;47;20165;-86
2022/11/28 02:05:07;;;;;;;1.33;1.30;;;;;;;0.35;100.00;94979.94;2624827;47;20152;-85
2022/11/28 02:07:39;;;;;;;0.50;0.50;;;;;;;0.35;100.00;94975.09;2624136;54;20204;-85
2022/11/28 02:10:12;;;;;;;1.20;1.17;;;;;;;0.33;100.00;94933.16;2625902;39;20556;-86
2022/11/28 02:13:02;;;;;;;1.10;1.10;;;;;;;0.21;100.00;94912.00;2628837;47;20168;-84
2022/11/28 02:15:56;;;;;;;1.33;1.33;;;;;;;0.63;100.00;94962.53;2628172;47;20159;-86
2022/11/28 02:18:41;;;;;;;2.67;2.10;;;;;;;0.29;100.00;94946.75;2627556;54;20688;-87
2022/11/28 02:21:27;;;;;;;1.87;1.50;;;;;;;0.53;100.00;94967.38;2626463;47;20166;-87
2022/11/28 02:24:29;;;;;;;4.07;1.67;;;;;;;0.22;100.00;94935.75;2625521;47;20688;-87
2022/11/28 02:27:23;;;;;;;0.97;0.97;;;;;;;0.61;100.00;94967.97;2625895;54;20165;-86
2022/11/28 02:30:10;;;;;;;1.00;1.00;;;;;;;0.99;100.00;94960.94;2627588;47;20192;-87
2022/11/28 02:32:53;;;;;;;1.00;1.00;;;;;;;0.76;100.00;94957.84;2625278;51;20171;-88
2022/11/28 02:35:25;;;;;;;1.97;0.93;;;;;;;0.50;100.00;94957.38;2625163;39;20549;-85
2022/11/28 02:38:04;;;;;;;0.87;0.87;;;;;;;0.72;100.00;94947.13;2624185;47;20152;-86
2022/11/28 02:40:40;;;;;;;1.10;1.10;;;;;;;1.52;100.00;94964.69;2628613;47;20200;-85
2022/11/28 02:43:16;;;;;;;3.67;1.33;;;;;;;2.12;95.85;94971.00;2626210;47;20165;-86
2022/11/28 02:45:51;;;;;;;1.30;1.27;;;;;;;2.19;92.34;94949.81;2624806;47;20168;-87
2022/11/28 02:48:32;;;;;;;0.93;0.93;;;;;;;2.69;89.91;94952.47;2625264;47;20164;-86
2022/11/28 02:51:07;;;;;;;1.17;1.10;;;;;;;2.87;87.21;94966.91;2625196;47;20164;-87
2022/11/28 02:53:38;;;;;;;1.13;1.13;;;;;;;2.91;86.54;94950.38;2627947;39;20594;-88
2022/11/28 02:56:08;;;;;;;1.10;1.10;;;;;;;3.80;84.53;94970.09;2625231;47;20181;-87
2022/11/28 02:58:38;;;;;;;1.57;1.47;;;;;;;4.51;81.38;94971.63;2625422;47;20160;-87
2022/11/28 03:01:15;;;;;;;1.45;1.45;;;;;;;4.51;79.61;94977.22;2624986;47;20431;-86
2022/11/28 03:04:14;;;;;;;1.03;0.70;;;;;;;3.67;80.76;94959.47;2624900;47;20153;-88
2022/11/28 03:06:51;;;;;;;0.90;0.90;;;;;;;4.05;80.69;94961.09;2625409;54;20152;-86
2022/11/28 03:09:47;;;;;;;1.53;0.70;;;;;;;4.31;79.40;94976.00;2624579;47;20173;-86
2022/11/28 03:12:26;;;;;;;1.03;1.03;;;;;;;4.13;80.34;94953.91;2623936;54;20770;-85
2022/11/28 03:14:57;;;;;;;0.70;0.70;;;;;;;3.70;79.97;94963.81;2624197;47;20171;-87
2022/11/28 03:17:39;;;;;;;2.80;1.50;;;;;;;2.88;82.08;94945.97;2623622;54;20165;-87
2022/11/28 03:20:21;;;;;;;1.70;1.60;;;;;;;2.57;86.04;94929.28;2622654;54;20408;-85
2022/11/28 03:23:04;;;;;;;1.37;1.27;;;;;;;3.20;85.09;94982.41;2623403;47;20186;-88
2022/11/28 03:25:38;;;;;;;0.60;0.60;;;;;;;3.62;83.94;94929.72;2625553;47;20169;-86
2022/11/28 03:28:13;;;;;;;0.90;0.90;;;;;;;3.12;82.93;94947.59;2625281;54;20153;-86
2022/11/28 03:30:47;;;;;;;0.73;0.70;;;;;;;3.11;83.34;94979.69;2624853;47;20288;-86
2022/11/28 03:33:17;;;;;;;0.90;0.90;;;;;;;2.60;85.97;94937.19;2625584;47;20702;-85
2022/11/28 03:35:54;;;;;;;0.60;0.60;;;;;;;2.33;89.17;94976.63;2626008;47;20153;-86
2022/11/28 03:38:26;;;;;;;0.87;0.87;;;;;;;1.90;90.74;94959.03;2626323;47;20157;-86
2022/11/28 03:41:00;;;;;;;1.50;1.50;;;;;;;1.77;92.04;94960.25;2628707;47;20173;-85
2022/11/28 03:43:36;;;;;;;0.93;0.93;;;;;;;1.40;94.29;94973.69;2625253;47;20193;-87
2022/11/28 03:46:10;;;;;;;0.50;0.50;;;;;;;1.06;96.73;94943.34;2624906;54;20156;-85
2022/11/28 03:48:42;;;;;;;0.30;0.30;;;;;;;1.27;96.75;94925.97;2625078;54;20708;-86
2022/11/28 03:51:18;;;;;;;1.17;1.07;;;;;;;1.73;95.64;94957.16;2624544;54;20153;-86
2022/11/28 03:53:53;;;;;;;1.30;1.30;;;;;;;1.67;96.68;94950.41;2624594;54;20160;-86
2022/11/28 03:56:27;;;;;;;0.70;0.70;;;;;;;2.08;95.94;94954.69;2625819;54;20202;-86
2022/11/28 03:59:00;;;;;;;0.60;0.60;;;;;;;2.45;92.45;94971.16;2626521;39;20613;-86
2022/11/28 04:01:38;;;;;;;0.50;0.50;;;;;;;1.69;93.88;94975.69;2626335;47;20189;-86
2022/11/28 04:04:15;;;;;;;1.40;1.40;;;;;;;1.58;95.64;94946.34;2627862;47;20247;-86
2022/11/28 04:06:55;;;;;;;1.33;1.33;;;;;;;1.95;95.93;94977.53;2623478;47;20164;-86
2022/11/28 04:09:37;;;;;;;0.77;0.77;;;;;;;1.26;94.90;94919.66;2623449;47;20187;-86
2022/11/28 04:12:12;;;;;;;0.40;0.40;;;;;;;1.74;95.54;94966.28;2623406;54;20680;-85
2022/11/28 04:14:47;;;;;;;0.40;0.40;;;;;;;1.27;96.62;94909.22;2623113;31;20622;-85
2022/11/28 04:17:21;;;;;;;0.40;0.40;;;;;;;1.28;94.88;94917.00;2622291;46;20168;-86
2022/11/28 04:19:53;;;;;;;0.53;0.40;;;;;;;1.30;96.98;94956.22;2622101;54;20173;-86
2022/11/28 04:22:28;;;;;;;0.47;0.47;;;;;;;1.33;97.99;94959.91;2621726;47;20156;-85
2022/11/28 04:25:01;;;;;;;1.30;1.13;;;;;;;1.47;97.78;94965.75;2622107;54;20164;-86
2022/11/28 04:27:36;;;;;;;0.60;0.60;;;;;;;1.06;97.80;94965.66;2621810;54;20165;-87
2022/11/28 04:30:07;;;;;;;0.60;0.60;;;;;;;1.09;99.59;94955.38;2621849;54;20168;-84
2022/11/28 04:32:41;;;;;;;1.07;0.60;;;;;;;0.88;99.16;94962.25;2621510;47;20172;-86
2022/11/28 04:35:13;;;;;;;1.17;1.17;;;;;;;0.80;100.00;94972.84;2621393;54;22127;-87
2022/11/28 04:37:48;;;;;;;1.30;1.30;;;;;;;0.79;100.00;94976.19;2621786;47;20164;-85
2022/11/28 04:40:20;;;;;;;0.40;0.40;;;;;;;0.66;100.00;94938.34;2621809;54;20180;-87
2022/11/28 04:42:51;;;;;;;0.83;0.83;;;;;;;0.48;100.00;94959.28;2621277;47;20201;-85
2022/11/28 04:45:26;;;;;;;0.30;0.30;;;;;;;1.29;100.00;94945.66;2621575;54;20689;-86
2022/11/28 04:47:55;;;;;;;0.57;0.57;;;;;;;0.67;100.00;94979.56;2621564;47;20182;-86
2022/11/28 04:50:27;;;;;;;0.60;0.60;;;;;;;0.44;100.00;94967.34;2622369;46;20645;-86
2022/11/28 04:53:04;;;;;;;0.73;0.73;;;;;;;0.61;100.00;94995.09;2625955;47;20157;-85
2022/11/28 04:55:38;;;;;;;1.50;1.43;;;;;;;0.41;100.00;94966.44;2623586;47;20485;-86
2022/11/28 04:58:14;;;;;;;0.60;0.60;;;;;;;0.65;100.00;94981.47;2624087;47;20191;-85
2022/11/28 05:00:44;;;;;;;0.67;0.67;;;;;;;0.76;100.00;94982.94;2623091;47;20766;-86
2022/11/28 05:03:13;;;;;;;1.50;1.17;;;;;;;0.50;100.00;94995.66;2622752;47;20201;-87
2022/11/28 05:05:47;;;;;;;0.47;0.47;;;;;;;0.40;100.00;94992.84;2624109;54;20164;-86
2022/11/28 05:08:19;;;;;;;0.97;0.97;;;;;;;0.38;100.00;94941.81;2621484;47;20294;-85
2022/11/28 05:10:49;;;;;;;1.07;1.07;;;;;;;0.54;100.00;94976.47;2623719;47;20684;-86
2022/11/28 05:13:18;;;;;;;0.33;0.33;;;;;;;0.70;100.00;94980.44;2625607;46;20195;-85
2022/11/28 05:15:46;;;;;;;1.37;1.37;;;;;;;1.15;100.00;94992.06;2624939;47;20165;-87
2022/11/28 05:18:15;;;;;;;0.52;0.52;;;;;;;0.82;100.00;94988.97;2623787;47;20353;-87
2022/11/28 05:20:44;;;;;;;1.20;1.20;;;;;;;0.69;100.00;94982.47;2624401;47;20168;-86
2022/11/28 05:23:12;;;;;;;0.80;0.80;;;;;;;0.83;100.00;94979.28;2626495;47;20160;-87
2022/11/28 05:25:44;;;;;;;2.30;1.80;;;;;;;0.81;100.00;94979.88;2628376;47;20703;-87
2022/11/28 05:28:13;;;;;;;1.47;1.10;;;;;;;0.91;100.00;94975.03;2627025;47;20164;-85
2022/11/28 05:30:42;;;;;;;1.63;0.90;;;;;;;0.50;100.00;94962.22;2626377;47;20309;-85
2022/11/28 05:33:10;;;;;;;1.37;1.27;;;;;;;0.38;100.00;94964.09;2628057;54;20152;-87
2022/11/28 05:35:41;;;;;;;0.90;0.90;;;;;;;0.49;100.00;94969.84;2627095;47;20153;-85
2022/11/28 05:38:09;;;;;;;0.93;0.93;;;;;;;-0.49;100.00;94828.16;2595011;47;20279;-86
2022/11/28 05:40:42;;;;;;;1.27;0.77;;;;;;;0.14;100.00;94907.28;2624109;39;20602;-84
2022/11/28 05:43:14;;;;;;;0.80;0.80;;;;;;;0.88;100.00;94928.81;2622394;54;20160;-85
2022/11/28 05:45:44;;;;;;;1.73;1.73;;;;;;;0.72;100.00;94905.31;2625679;47;20190;-86
2022/11/28 05:48:13;;;;;;;0.50;0.50;;;;;;;0.62;100.00;94871.88;2626943;54;20156;-86
2022/11/28 05:50:42;;;;;;;1.10;1.10;;;;;;;1.11;100.00;94949.91;2625142;47;20156;-82
2022/11/28 05:53:12;;;;;;;1.73;1.73;;;;;;;0.90;100.00;94944.94;2621388;47;20721;-86
2022/11/28 05:55:42;;;;;;;0.83;0.83;;;;;;;0.45;100.00;94950.03;2620142;54;20213;-85
2022/11/28 05:58:10;;;;;;;0.73;0.73;;;;;;;1.00;100.00;94976.34;2620836;54;20178;-86
2022/11/28 06:00:42;;;;;;;17.63;1.53;;;;;;;0.83;100.00;94977.22;2620860;47;20160;-85
2022/11/28 06:03:11;;;;;;;0.70;0.70;;;;;;;0.94;100.00;94961.97;2622221;47;20160;-85
2022/11/28 06:05:42;;;;;;;0.80;0.80;;;;;;;0.95;100.00;94966.97;2624232;47;20177;-85
2022/11/28 06:08:11;;;;;;;1.20;1.20;;;;;;;0.78;100.00;94946.84;2619394;47;20158;-85
2022/11/28 06:10:40;;;;;;;1.23;1.23;;;;;;;1.03;100.00;94975.91;2619178;54;20252;-85
2022/11/28 06:13:09;;;;;;;3.37;1.73;;;;;;;0.86;100.00;94980.91;2618891;54;20181;-85
2022/11/28 06:15:38;;;;;;;1.33;1.33;;;;;;;0.83;100.00;94962.53;2619469;54;20180;-85
2022/11/28 06:18:10;;;;;;;1.63;1.63;;;;;;;0.84;100.00;94970.31;2620696;54;20204;-87
2022/11/28 06:20:39;;;;;;;5.00;1.77;;;;;;;0.43;100.00;94915.69;2626772;39;20552;-86
2022/11/28 06:23:07;;;;;;;1.23;1.23;;;;;;;0.38;100.00;94936.25;2624970;47;20153;-87
2022/11/28 06:25:36;;;;;;;2.07;1.60;;;;;;;0.85;100.00;94974.56;2624456;47;20166;-85
2022/11/28 06:28:05;;;;;;;2.97;1.97;;;;;;;0.65;100.00;94950.81;2623443;47;20686;-85
2022/11/28 06:30:33;;;;;;;1.50;1.50;;;;;;;0.81;100.00;94954.06;2624137;54;20157;-86
2022/11/28 06:33:02;;;;;;;0.90;0.90;;;;;;;1.05;100.00;94970.50;2623563;54;20149;-83
2022/11/28 06:35:33;;;;;;;2.30;2.10;;;;;;;1.05;100.00;94980.91;2624223;54;20384;-86
2022/11/28 06:38:06;;;;;;;1.50;1.47;;;;;;;0.84;100.00;94911.75;2627710;47;20184;31
2022/11/28 06:43:05;;;;;;;2.30;1.97;;;;;;;0.78;100.00;94966.38;2576170;54;20281;31
2022/11/28 06:45:35;;;;;;;2.53;2.40;;;;;;;0.69;100.00;94965.75;2574592;47;20950;31
2022/11/28 06:53:00;;;;;;;3.00;2.10;;;;;;;0.79;100.00;94962.25;2573577;54;20611;31
2022/11/28 06:55:34;;;;;;;3.00;1.63;;;;;;;0.80;100.00;94958.88;2578988;47;20400;-90
2022/11/28 07:03:00;;;;;;;2.67;1.80;;;;;;;-0.38;100.00;94793.47;2601677;54;21412;-87
2022/11/28 07:10:25;;;;;;;1.87;1.77;;;;;;;0.81;99.58;94915.75;2619429;54;20230;-85
2022/11/28 07:12:59;;;;;;;1.57;1.57;;;;;;;1.11;99.68;94961.81;2618509;47;20216;-82
2022/11/28 07:15:28;;;;;;;2.63;2.42;;;;;;;1.15;99.67;94964.16;2619107;47;20405;-82
2022/11/28 07:17:56;;;;;;;4.63;3.30;;;;;;;1.01;98.56;94955.50;2618760;47;20209;-82
2022/11/28 07:20:25;;;;;;;3.60;2.73;;;;;;;1.53;98.37;94960.59;2618392;47;20180;-82
2022/11/28 07:22:54;;;;;;;1.30;1.30;;;;;;;1.43;96.94;94972.50;2618404;54;20171;-82
2022/11/28 07:25:22;;;;;;;1.37;1.37;;;;;;;1.36;95.96;94950.34;2618084;47;20746;-83
2022/11/28 07:27:51;;;;;;;2.63;2.43;;;;;;;1.21;94.79;94948.59;2618019;47;20753;-83
2022/11/28 07:30:22;;;;;;;1.37;1.23;;;;;;;1.38;97.37;94947.69;2616566;47;20164;-80
2022/11/28 07:32:51;;;;;;;1.37;1.37;;;;;;;1.43;98.05;94960.63;2616970;47;20176;-80
2022/11/28 07:35:20;;;;;;;3.47;2.40;;;;;;;1.14;97.16;94935.53;2617311;54;20177;-80
2022/11/28 07:37:48;;;;;;;3.30;1.87;;;;;;;1.02;97.35;94945.81;2618414;39;20642;-78
2022/11/28 07:40:18;;;;;;;1.33;1.33;;;;;;;1.14;97.36;94907.63;2617016;54;20691;-78
2022/11/28 07:42:47;;;;;;;3.67;2.43;;;;;;;1.73;98.02;94956.44;2616978;54;20995;-82
2022/11/28 07:45:16;;;;;;;2.17;2.03;;;;;;;2.21;97.14;94955.50;2612786;47;20695;-84
2022/11/28 07:47:48;;;;;;;2.50;2.30;;;;;;;1.84;94.02;94955.81;2618138;54;20160;-84
2022/11/28 07:50:17;;;;;;;2.07;1.97;;;;;;;1.62;94.60;94954.28;2617526;39;20541;-78
2022/11/28 07:52:48;;;;;;;2.13;2.03;;;;;;;1.37;96.41;94946.94;2616981;47;20180;-86
2022/11/28 07:55:17;;;;;;;1.73;1.63;;;;;;;1.15;96.92;94953.75;2619523;47;20168;-80
2022/11/28 07:57:45;;;;;;;2.67;2.57;;;;;;;1.21;98.23;94950.66;2618319;54;20168;-80
2022/11/28 08:00:16;;;;;;;1.33;1.23;;;;;;;1.25;98.82;94950.94;2618031;47;20165;-78
2022/11/28 08:02:47;;;;;;;2.47;2.27;;;;;;;1.41;98.71;94955.63;2617781;47;20157;-79
2022/11/28 08:05:16;;;;;;;0.83;0.83;;;;;;;1.37;99.06;94944.16;2615712;54;20178;-79
2022/11/28 08:07:44;;;;;;;2.00;1.90;;;;;;;1.31;97.83;94954.91;2617825;47;20744;-82
2022/11/28 08:10:13;;;;;;;1.83;1.77;;;;;;;1.00;98.38;94948.47;2619698;54;20183;-79
2022/11/28 08:12:42;;;;;;;2.20;1.57;;;;;;;1.07;100.00;94936.44;2618948;54;20216;-80
2022/11/28 08:15:11;;;;;;;1.43;1.40;;;;;;;1.21;100.00;94950.66;2618100;39;20663;-81
2022/11/28 08:17:40;;;;;;;1.30;1.30;;;;;;;2.08;100.00;94943.50;2619544;31;20661;-82
2022/11/28 08:20:13;;;;;;;2.93;2.73;;;;;;;1.45;98.39;94946.06;2611720;47;20175;-82
2022/11/28 08:22:41;;;;;;;3.63;2.17;;;;;;;1.38;100.00;94948.41;2619219;47;20168;-80
2022/11/28 08:25:11;;;;;;;1.90;1.80;;;;;;;1.29;100.00;94940.81;2618846;47;20165;-81
2022/11/28 08:27:40;;;;;;;2.23;1.60;;;;;;;1.50;100.00;94956.94;2618506;54;20163;-79
2022/11/28 08:30:10;;;;;;;2.27;2.17;;;;;;;1.68;100.00;94946.31;2620878;46;20246;-85
2022/11/28 08:32:39;;;;;;;0.90;0.90;;;;;;;2.12;100.00;94927.03;2628322;54;20173;-86
2022/11/28 08:35:11;;;;;;;2.20;1.30;;;;;;;2.02;99.71;94953.53;2625075;54;20164;-85
2022/11/28 08:37:40;;;;;;;2.57;2.37;;;;;;;2.13;98.96;94945.25;2622860;54;20165;-84
2022/11/28 08:40:10;;;;;;;13.93;2.13;;;;;;;2.49;97.69;94924.59;2618999;47;20192;-83
2022/11/28 08:42:38;;;;;;;1.90;1.80;;;;;;;1.96;95.90;94928.72;2628971;47;20141;-87
2022/11/28 08:45:09;;;;;;;5.00;2.00;;;;;;;1.88;97.91;94941.41;2622426;54;20212;-86
2022/11/28 08:47:37;;;;;;;3.37;3.17;;;;;;;0.75;98.90;94830.94;2615250;47;20299;-86
2022/11/28 08:50:08;;;;;;;1.07;1.07;;;;;;;1.92;100.00;94913.72;2629532;47;20152;-83
2022/11/28 08:52:39;;;;;;;1.40;1.40;;;;;;;2.59;100.00;94907.06;2629453;47;20166;-84
2022/11/28 08:55:08;;;;;;;1.67;1.57;;;;;;;2.46;95.06;94905.53;2629438;46;20209;-81
2022/11/28 08:57:37;;;;;;;0.90;0.90;;;;;;;2.84;95.96;94927.63;2628250;47;20149;-80
2022/11/28 09:00:07;;;;;;;2.67;2.47;;;;;;;2.53;95.44;94912.97;2621932;47;20153;-80
2022/11/28 09:02:36;;;;;;;2.10;1.90;;;;;;;2.24;95.74;94923.59;2623661;47;20163;-79
2022/11/28 09:05:04;;;;;;;1.30;1.20;;;;;;;2.84;99.56;94918.50;2618113;47;20286;-83
2022/11/28 09:07:33;;;;;;;1.73;1.73;;;;;;;3.68;96.46;94907.72;2622305;54;20147;-80
2022/11/28 09:10:05;;;;;;;1.00;1.00;;;;;;;3.50;94.76;94899.63;2617986;46;20163;-78
2022/11/28 09:12:33;;;;;;;3.43;2.13;;;;;;;3.66;95.06;94896.38;2618559;46;20233;-80
2022/11/28 09:15:02;;;;;;;1.37;1.37;;;;;;;3.56;95.25;94888.06;2618949;47;20244;-79
2022/11/28 09:17:30;;;;;;;1.43;1.33;;;;;;;3.19;92.63;94882.25;2618686;46;20181;-80
2022/11/28 09:19:59;;;;;;;1.43;1.37;;;;;;;3.67;91.44;94895.78;2617607;54;20182;-78
2022/11/28 09:22:30;;;;;;;1.53;1.43;;;;;;;3.29;89.75;94884.94;2618223;47;20172;-78
2022/11/28 09:24:59;;;;;;;1.83;1.73;;;;;;;3.39;89.05;94888.41;2617374;54;20153;-82
2022/11/28 09:27:31;;;;;;;1.03;1.03;;;;;;;2.77;92.59;94880.25;2614806;39;20575;-81
2022/11/28 09:32:28;;;;;;;1.30;1.20;;;;;;;3.09;93.74;94878.81;2605928;54;20208;-83
2022/11/28 09:37:32;;;;;;;2.33;2.22;;;;;;;3.00;94.68;94876.84;2589777;54;20399;-83
2022/11/28 09:40:01;;;;;;;1.57;1.57;;;;;;;3.13;94.38;94865.81;2598194;54;20248;-84
2022/11/28 09:45:06;;;;;;;2.00;1.90;;;;;;;2.71;91.79;94857.50;2620871;54;20152;-78
2022/11/28 09:47:38;;;;;;;1.60;1.50;;;;;;;2.32;91.78;94854.28;2617860;54;20692;-81
2022/11/28 09:50:14;;;;;;;1.27;1.17;;;;;;;2.26;93.55;94854.59;2617754;47;20252;-80
2022/11/28 09:52:50;;;;;;;0.90;0.90;;;;;;;2.55;97.08;94842.47;2617807;47;20711;-83
2022/11/28 09:55:26;;;;;;;1.37;1.03;;;;;;;2.36;93.05;94832.16;2617889;46;20203;-82
2022/11/28 09:57:56;;;;;;;1.17;1.17;;;;;;;2.71;93.66;94821.88;2617949;47;20680;-83
2022/11/28 10:00:36;;;;;;;1.57;1.47;;;;;;;2.99;92.52;94845.34;2617832;47;20225;-82
2022/11/28 10:03:19;;;;;;;0.70;0.70;;;;;;;3.46;91.71;94846.16;2617974;47;20270;-81
2022/11/28 10:05:55;;;;;;;1.33;1.17;;;;;;;3.35;87.24;94796.50;2617528;47;20297;-84
2022/11/28 10:08:33;;;;;;;1.13;1.13;;;;;;;3.65;86.85;94841.69;2617808;47;20156;-80
2022/11/28 10:11:06;;;;;;;0.53;0.53;;;;;;;3.85;85.82;94834.50;2617346;54;20161;-80
2022/11/28 10:13:47;;;;;;;2.20;2.00;;;;;;;4.17;83.65;94814.00;2617723;47;20175;-81
2022/11/28 10:16:26;;;;;;;1.20;1.20;;;;;;;4.18;83.21;94837.91;2617421;47;20206;-82
2022/11/28 10:21:26;;;;;;;0.60;0.60;;;;;;;5.19;76.98;94842.22;2570011;39;21518;31
2022/11/28 10:24:02;;;;;;;1.90;1.80;;;;;;;4.21;76.97;94817.06;2571569;47;21233;31
2022/11/28 10:26:37;;;;;;;1.23;1.23;;;;;;;3.44;81.10;94753.63;2572612;47;20457;-81
2022/11/28 10:29:20;;;;;;;1.40;1.30;;;;;;;4.66;81.42;94825.22;2618469;54;20395;-84
2022/11/28 10:31:54;;;;;;;1.17;1.17;;;;;;;5.38;78.89;94825.00;2619157;47;20153;-85
2022/11/28 10:34:31;;;;;;;0.83;0.83;;;;;;;5.01;75.79;94760.53;2620188;47;20163;-86
2022/11/28 10:37:05;;;;;;;0.87;0.87;;;;;;;6.21;75.98;94809.72;2618508;47;20243;-81
2022/11/28 10:39:34;;;;;;;0.90;0.90;;;;;;;5.19;75.27;94792.41;2617884;47;20785;-79
2022/11/28 10:42:13;;;;;;;1.03;1.03;;;;;;;4.55;72.92;94806.34;2617956;47;20190;-81
2022/11/28 10:45:08;;;;;;;0.93;0.93;;;;;;;4.51;76.55;94806.13;2619147;47;20317;-82
2022/11/28 10:48:00;;;;;;;1.63;1.53;;;;;;;5.18;77.01;94802.19;2619422;47;20186;-84
2022/11/28 10:50:35;;;;;;;0.60;0.60;;;;;;;5.66;74.48;94714.13;2618509;54;20168;-86
2022/11/28 10:53:12;;;;;;;0.70;0.70;;;;;;;5.94;72.10;94770.38;2619126;47;20173;-83
2022/11/28 10:55:54;;;;;;;1.30;1.30;;;;;;;5.42;74.26;94802.75;2620012;54;20165;-83
2022/11/28 10:58:25;;;;;;;1.53;1.53;;;;;;;6.09;74.93;94766.19;2617267;47;20172;-81
2022/11/28 11:00:57;;;;;;;0.87;0.87;;;;;;;6.10;73.88;94795.78;2619964;47;20157;-84
2022/11/28 11:03:31;;;;;;;1.20;1.10;;;;;;;4.28;74.48;94742.44;2620826;47;20153;-83
2022/11/28 11:06:01;;;;;;;0.93;0.93;;;;;;;5.22;74.26;94790.41;2625882;54;20212;-84
2022/11/28 11:08:31;;;;;;;0.80;0.80;;;;;;;5.90;75.25;94778.59;2621207;47;20165;-84
2022/11/28 11:11:05;;;;;;;1.07;0.87;;;;;;;5.53;75.12;94796.31;2623707;47;20160;-86
2022/11/28 11:13:36;;;;;;;0.80;0.80;;;;;;;5.60;74.60;94791.78;2627419;47;20153;-83
2022/11/28 11:16:08;;;;;;;0.80;0.80;;;;;;;5.49;73.74;94789.75;2627856;47;20165;-87
2022/11/28 11:18:53;;;;;;;1.77;1.67;;;;;;;6.70;75.21;94784.72;2622569;47;20153;-85
2022/11/28 11:21:23;;;;;;;1.60;1.43;;;;;;;6.42;71.07;94786.16;2621708;47;20164;-85
2022/11/28 11:24:13;;;;;;;1.67;1.67;;;;;;;6.14;71.58;94765.78;2622447;47;20210;-84
2022/11/28 11:26:45;;;;;;;1.43;1.20;;;;;;;5.64;70.31;94777.91;2622160;47;20193;-84
2022/11/28 11:29:23;;;;;;;0.90;0.90;;;;;;;5.29;69.00;94761.31;2621042;54;20217;-85
2022/11/28 11:31:54;;;;;;;2.17;2.07;;;;;;;4.23;70.12;94771.59;2620762;47;20153;-85
2022/11/28 11:34:26;;;;;;;0.73;0.73;;;;;;;4.34;76.11;94770.81;2620126;47;20169;-84
2022/11/28 11:37:23;;;;;;;1.30;1.20;;;;;;;4.94;71.36;94753.84;2619178;47;20187;-86
2022/11/28 11:39:53;;;;;;;1.13;1.13;;;;;;;4.77;71.00;94757.13;2619720;47;20172;-85
2022/11/28 11:42:24;;;;;;;0.90;0.90;;;;;;;5.45;73.24;94753.78;2619214;47;20161;-86
2022/11/28 11:44:53;;;;;;;0.60;0.60;;;;;;;4.61;71.33;94660.84;2619586;47;20160;-87
2022/11/28 11:47:41;;;;;;;1.20;1.20;;;;;;;5.24;68.32;94751.22;2619941;47;20188;-85
2022/11/28 11:50:19;;;;;;;0.70;0.70;;;;;;;5.20;67.62;94757.34;2617619;54;20168;-79
2022/11/28 11:53:02;;;;;;;1.63;1.63;;;;;;;4.18;71.11;94747.47;2607187;47;20204;-78
2022/11/28 11:55:32;;;;;;;2.10;1.27;;;;;;;4.21;71.36;94713.34;2618134;54;20168;-81
2022/11/28 11:58:04;;;;;;;1.30;0.95;;;;;;;4.90;69.85;94744.47;2619873;47;20377;-81
2022/11/28 12:00:39;;;;;;;1.47;1.47;;;;;;;4.55;70.15;94756.59;2618233;46;20153;-79
2022/11/28 12:03:17;;;;;;;1.07;1.07;;;;;;;5.10;72.37;94748.38;2617250;54;20176;-82
2022/11/28 12:05:55;;;;;;;1.83;1.20;;;;;;;5.03;69.92;94740.25;2617507;47;20160;-81
2022/11/28 12:08:33;;;;;;;1.00;1.00;;;;;;;4.63;70.36;94728.28;2617329;47;20171;-81
2022/11/28 12:11:13;;;;;;;1.17;1.07;;;;;;;5.28;70.50;94734.59;2616277;54;20709;-80
2022/11/28 12:13:42;;;;;;;0.90;0.90;;;;;;;4.96;65.64;94734.31;2617642;47;20275;-79
2022/11/28 12:16:27;;;;;;;1.70;1.60;;;;;;;4.39;68.40;94741.66;2617612;47;20176;-81
2022/11/28 12:19:05;;;;;;;1.67;1.57;;;;;;;4.35;70.40;94724.63;2619060;47;20379;-85
2022/11/28 12:21:45;;;;;;;1.37;1.37;;;;;;;3.73;69.79;94716.13;2621572;54;20173;-83
2022/11/28 12:24:19;;;;;;;1.23;1.23;;;;;;;3.98;70.07;94721.06;2619148;47;20181;-85
2022/11/28 12:26:51;;;;;;;0.70;0.70;;;;;;;4.04;70.77;94713.75;2618782;47;20184;-83
2022/11/28 12:29:45;;;;;;;1.47;1.43;;;;;;;4.30;69.67;94739.75;2617966;47;20157;-85
2022/11/28 12:32:29;;;;;;;0.80;0.80;;;;;;;5.14;72.67;94717.00;2620661;47;20172;-85
2022/11/28 12:35:21;;;;;;;1.20;1.20;;;;;;;4.49;68.15;94738.72;2620923;54;20711;-86
2022/11/28 12:38:03;;;;;;;1.37;1.37;;;;;;;4.35;71.14;94738.63;2617906;47;20161;-83
2022/11/28 12:40:40;;;;;;;1.30;1.23;;;;;;;4.28;68.55;94739.63;2617762;47;20184;-80
2022/11/28 12:43:24;;;;;;;0.63;0.63;;;;;;;4.26;69.37;94731.81;2620052;47;20176;-86
2022/11/28 12:46:01;;;;;;;1.13;1.10;;;;;;;4.31;69.38;94748.88;2618804;46;20639;-85
2022/11/28 12:48:44;;;;;;;0.97;0.97;;;;;;;4.02;69.66;94718.50;2619118;54;20928;-84